createdAt,value
2022-09-06T00:01:10.763Z,1.33
2022-09-06T00:03:37.439Z,1.30
2022-09-06T00:08:35.859Z,2.20
2022-09-06T00:11:02.420Z,1.50
2022-09-06T00:13:28.982Z,1.92
2022-09-06T00:15:55.670Z,2.13
2022-09-06T00:18:22.329Z,1.70
2022-09-06T00:20:48.990Z,2.20
2022-09-06T00:23:15.552Z,2.33
2022-09-06T00:25:42.147Z,1.75
2022-09-06T00:28:08.744Z,2.15
2022-09-06T00:30:35.394Z,2.13
2022-09-06T00:33:01.947Z,1.90
2022-09-06T00:35:31.217Z,1.65
2022-09-06T00:38:00.534Z,1.80
2022-09-06T00:40:29.499Z,1.58
2022-09-06T00:42:58.280Z,1.73
2022-09-06T00:45:29.540Z,1.98
2022-09-06T00:47:57.865Z,2.45
2022-09-06T00:50:28.160Z,2.47
2022-09-06T00:52:56.827Z,2.22
2022-09-06T00:55:27.414Z,2.10
2022-09-06T00:57:54.347Z,2.30
2022-09-06T01:00:21.245Z,1.95
2022-09-06T01:02:48.744Z,1.85
2022-09-06T01:05:16.600Z,2.03
2022-09-06T01:07:43.058Z,1.90
2022-09-06T01:10:11.743Z,1.98
2022-09-06T01:13:02.935Z,1.83
2022-09-06T01:15:44.888Z,2.00
2022-09-06T01:18:24.568Z,2.20
2022-09-06T01:21:02.238Z,2.40
2022-09-06T01:23:29.702Z,2.40
2022-09-06T01:26:14.718Z,2.70
2022-09-06T01:28:47.844Z,2.85
2022-09-06T01:31:35.455Z,2.50
2022-09-06T01:34:05.960Z,2.40
2022-09-06T01:37:09.082Z,2.13
2022-09-06T01:39:38.390Z,2.40
2022-09-06T01:42:10.257Z,2.30
2022-09-06T01:44:38.795Z,2.20
2022-09-06T01:47:25.043Z,2.10
2022-09-06T01:50:37.563Z,2.65
2022-09-06T01:53:18.041Z,2.65
2022-09-06T01:55:46.724Z,2.45
2022-09-06T01:58:42.465Z,2.60
2022-09-06T02:01:41.318Z,2.80
2022-09-06T02:04:18.157Z,2.60
2022-09-06T02:07:13.034Z,2.70
2022-09-06T02:09:41.715Z,2.70
2022-09-06T02:12:37.113Z,3.22
2022-09-06T02:15:06.486Z,3.90
2022-09-06T02:17:53.410Z,3.15
2022-09-06T02:20:24.923Z,3.45
2022-09-06T02:22:56.538Z,3.53
2022-09-06T02:25:32.146Z,4.10
2022-09-06T02:27:58.847Z,4.50
2022-09-06T02:30:25.630Z,4.80
2022-09-06T02:32:59.602Z,4.90
2022-09-06T02:35:26.561Z,5.03
2022-09-06T02:37:53.130Z,4.47
2022-09-06T02:40:20.375Z,4.80
2022-09-06T02:42:46.865Z,4.93
2022-09-06T02:45:15.982Z,5.60
2022-09-06T02:47:42.497Z,5.03
2022-09-06T02:50:09.209Z,4.20
2022-09-06T02:52:35.812Z,4.47
2022-09-06T02:55:02.413Z,4.65
2022-09-06T02:57:28.966Z,4.63
2022-09-06T02:59:55.467Z,4.95
2022-09-06T03:02:22.142Z,4.50
2022-09-06T03:04:50.826Z,5.43
2022-09-06T03:07:17.424Z,4.82
2022-09-06T03:09:43.956Z,5.25
2022-09-06T03:12:10.531Z,5.47
2022-09-06T03:14:37.181Z,5.10
2022-09-06T03:17:04.162Z,5.20
2022-09-06T03:19:30.769Z,5.03
2022-09-06T03:21:57.417Z,5.45
2022-09-06T03:24:26.543Z,5.00
2022-09-06T03:26:55.400Z,4.32
2022-09-06T03:29:21.967Z,5.20
2022-09-06T03:31:48.474Z,5.63
2022-09-06T03:34:14.988Z,4.80
2022-09-06T03:36:41.529Z,5.35
2022-09-06T03:39:08.088Z,4.80
2022-09-06T03:41:36.846Z,4.90
2022-09-06T03:44:03.400Z,5.28
2022-09-06T03:46:30.873Z,5.28
2022-09-06T03:48:58.298Z,4.85
2022-09-06T03:51:25.191Z,4.78
2022-09-06T03:53:51.770Z,5.80
2022-09-06T03:56:18.324Z,5.38
2022-09-06T03:58:44.919Z,5.47
2022-09-06T04:01:12.551Z,5.20
2022-09-06T04:03:39.937Z,4.88
2022-09-06T04:06:07.271Z,5.53
2022-09-06T04:08:35.943Z,5.70
2022-09-06T04:11:02.991Z,5.38
2022-09-06T04:13:30.335Z,5.35
2022-09-06T04:15:57.356Z,5.57
2022-09-06T04:18:24.563Z,5.57
2022-09-06T04:20:53.246Z,5.47
2022-09-06T04:23:20.415Z,5.47
2022-09-06T04:25:48.391Z,5.20
2022-09-06T04:28:15.868Z,5.18
2022-09-06T04:30:42.432Z,4.93
2022-09-06T04:33:08.967Z,4.45
2022-09-06T04:35:35.902Z,4.30
2022-09-06T04:38:03.935Z,3.75
2022-09-06T04:40:32.687Z,4.53
2022-09-06T04:42:59.253Z,4.07
2022-09-06T04:45:27.060Z,4.00
2022-09-06T04:47:56.058Z,3.97
2022-09-06T04:50:22.705Z,3.75
2022-09-06T04:52:49.210Z,3.42
2022-09-06T04:55:15.929Z,3.70
2022-09-06T04:57:46.586Z,3.83
2022-09-06T05:00:15.811Z,3.92
2022-09-06T05:02:42.588Z,3.55
2022-09-06T05:05:09.335Z,3.30
2022-09-06T05:07:35.952Z,3.53
2022-09-06T05:10:02.765Z,3.55
2022-09-06T05:12:29.464Z,3.80
2022-09-06T05:14:56.110Z,3.58
2022-09-06T05:17:22.666Z,3.45
2022-09-06T05:19:49.255Z,4.00
2022-09-06T05:22:15.786Z,3.30
2022-09-06T05:24:42.414Z,3.60
2022-09-06T05:27:09.467Z,3.50
2022-09-06T05:29:36.037Z,3.60
2022-09-06T05:32:02.893Z,3.47
2022-09-06T05:34:29.456Z,3.85
2022-09-06T05:36:55.958Z,3.58
2022-09-06T05:39:23.083Z,3.90
2022-09-06T05:41:49.739Z,3.55
2022-09-06T05:44:16.449Z,3.93
2022-09-06T05:46:45.190Z,4.00
2022-09-06T05:49:13.418Z,3.67
2022-09-06T05:51:41.246Z,3.80
2022-09-06T05:54:08.017Z,3.92
2022-09-06T05:59:17.344Z,4.13
2022-09-06T06:01:54.207Z,4.10
2022-09-06T06:04:22.344Z,4.45
2022-09-06T06:06:51.489Z,4.32
2022-09-06T06:09:18.060Z,4.87
2022-09-06T06:11:44.647Z,4.63
2022-09-06T06:14:11.442Z,4.20
2022-09-06T06:16:38.375Z,3.53
2022-09-06T06:19:07.282Z,4.30
2022-09-06T06:21:34.522Z,4.60
2022-09-06T06:24:03.456Z,4.57
2022-09-06T06:26:33.302Z,4.30
2022-09-06T06:29:02.036Z,4.40
2022-09-06T06:31:30.932Z,5.13
2022-09-06T06:33:58.302Z,4.93
2022-09-06T06:36:26.842Z,4.55
2022-09-06T06:38:55.332Z,4.60
2022-09-06T06:41:24.169Z,4.90
2022-09-06T06:43:54.035Z,4.80
2022-09-06T06:46:22.180Z,5.10
2022-09-06T06:48:52.777Z,5.20
2022-09-06T06:51:23.467Z,4.93
2022-09-06T06:53:50.176Z,5.18
2022-09-06T06:56:21.923Z,5.85
2022-09-06T06:58:51.732Z,5.63
2022-09-06T07:01:20.664Z,5.18
2022-09-06T07:03:51.111Z,5.40
2022-09-06T07:06:20.385Z,5.10
2022-09-06T07:08:47.416Z,5.82
2022-09-06T07:11:16.090Z,5.63
2022-09-06T07:13:44.095Z,5.38
2022-09-06T07:16:15.141Z,5.47
2022-09-06T07:18:43.582Z,6.15
2022-09-06T07:24:07.006Z,5.33
2022-09-06T07:26:35.422Z,5.15
2022-09-06T07:29:04.769Z,5.63
2022-09-06T07:34:19.330Z,6.20
2022-09-06T07:36:46.016Z,6.37
2022-09-06T07:39:12.623Z,6.60
2022-09-06T07:41:39.160Z,6.93
2022-09-06T07:44:05.734Z,6.13
2022-09-06T07:46:32.342Z,6.70
2022-09-06T07:48:58.980Z,5.77
2022-09-06T07:51:25.497Z,6.43
2022-09-06T07:54:07.384Z,6.68
2022-09-06T07:56:40.151Z,6.60
2022-09-06T07:59:06.670Z,6.60
2022-09-06T08:01:35.540Z,6.73
2022-09-06T08:04:05.891Z,6.70
2022-09-06T08:09:22.388Z,6.65
2022-09-06T08:11:51.124Z,6.20
2022-09-06T08:14:17.731Z,6.10
2022-09-06T08:16:44.340Z,6.50
2022-09-06T08:19:12.453Z,5.95
2022-09-06T08:21:39.041Z,6.03
2022-09-06T08:24:09.293Z,6.35
2022-09-06T08:26:40.803Z,6.30
2022-09-06T08:29:09.047Z,6.80
2022-09-06T08:31:39.061Z,6.60
2022-09-06T08:34:06.181Z,6.30
2022-09-06T08:36:34.551Z,5.88
2022-09-06T08:39:04.234Z,5.97
2022-09-06T08:41:48.748Z,5.43
2022-09-06T08:47:08.522Z,6.15
2022-09-06T08:49:41.959Z,5.30
2022-09-06T08:52:26.429Z,5.27
2022-09-06T08:55:09.034Z,5.80
2022-09-06T08:58:02.189Z,5.72
2022-09-06T09:00:29.840Z,5.45
2022-09-06T09:03:17.515Z,5.35
2022-09-06T09:05:50.610Z,5.47
2022-09-06T09:08:32.690Z,5.55
2022-09-06T09:11:04.201Z,4.90
2022-09-06T09:13:36.141Z,4.82
2022-09-06T09:16:02.768Z,4.38
2022-09-06T09:18:33.775Z,4.73
2022-09-06T09:21:00.463Z,4.88
2022-09-06T09:23:30.116Z,4.55
2022-09-06T09:26:02.068Z,4.07
2022-09-06T09:28:28.894Z,3.88
2022-09-06T09:30:56.953Z,3.90
2022-09-06T09:33:27.535Z,4.22
2022-09-06T09:35:55.355Z,3.88
2022-09-06T09:38:30.124Z,4.03
2022-09-06T09:41:00.511Z,3.13
2022-09-06T09:43:30.424Z,3.77
2022-09-06T09:46:15.131Z,2.85
2022-09-06T09:48:46.782Z,4.00
2022-09-06T09:51:27.394Z,3.42
2022-09-06T09:53:56.969Z,4.32
2022-09-06T10:09:35.258Z,5.13
2022-09-06T10:12:01.844Z,4.63
2022-09-06T10:14:33.237Z,4.78
2022-09-06T10:17:00.793Z,3.63
2022-09-06T10:19:41.090Z,4.22
2022-09-06T10:22:20.107Z,4.70
2022-09-06T10:25:13.556Z,4.20
2022-09-06T10:28:10.341Z,5.03
2022-09-06T10:30:49.510Z,3.83
2022-09-06T10:33:32.229Z,2.97
2022-09-06T10:36:01.946Z,3.00
2022-09-06T10:38:36.398Z,2.63
2022-09-06T10:41:23.137Z,2.28
2022-09-06T10:44:15.752Z,3.75
2022-09-06T10:46:45.306Z,3.13
2022-09-06T10:49:19.141Z,2.78
2022-09-06T10:51:52.195Z,2.67
2022-09-06T10:54:23.592Z,1.98
2022-09-06T10:56:57.141Z,1.70
2022-09-06T11:02:07.871Z,1.20
2022-09-06T11:07:31.531Z,1.85
2022-09-06T11:10:05.452Z,1.70
2022-09-06T11:12:42.486Z,1.88
2022-09-06T11:15:12.957Z,2.08
2022-09-06T11:17:53.011Z,1.70
2022-09-06T11:20:38.363Z,1.60
2022-09-06T11:23:18.112Z,1.55
2022-09-06T11:25:59.222Z,1.50
2022-09-06T11:28:36.474Z,1.50
2022-09-06T11:31:04.394Z,1.50
2022-09-06T11:33:41.018Z,1.60
2022-09-06T11:36:25.842Z,1.23
2022-09-06T11:38:56.509Z,1.50
2022-09-06T11:41:34.430Z,1.50
2022-09-06T11:44:04.919Z,1.60
2022-09-06T11:46:34.551Z,1.45
2022-09-06T11:49:02.557Z,1.58
2022-09-06T11:51:38.472Z,2.50
2022-09-06T11:54:21.975Z,2.20
2022-09-06T11:57:13.334Z,1.60
2022-09-06T11:59:46.074Z,1.70
2022-09-06T12:02:36.545Z,2.30
2022-09-06T12:05:11.713Z,2.45
2022-09-06T12:08:02.977Z,2.70
2022-09-06T12:10:29.420Z,2.30
2022-09-06T12:12:56.266Z,2.97
2022-09-06T12:15:26.790Z,2.90
2022-09-06T12:17:54.856Z,4.13
2022-09-06T12:21:01.217Z,3.17
2022-09-06T12:23:52.140Z,4.33
2022-09-06T12:26:51.858Z,3.58
2022-09-06T12:29:26.306Z,3.80
2022-09-06T12:32:03.937Z,3.10
2022-09-06T12:34:37.325Z,3.42
2022-09-06T12:37:11.479Z,3.10
2022-09-06T12:39:38.231Z,3.33
2022-09-06T12:42:16.274Z,3.08
2022-09-06T12:45:10.435Z,3.03
2022-09-06T12:47:58.032Z,3.65
2022-09-06T12:50:30.045Z,3.70
2022-09-06T12:53:00.185Z,4.38
2022-09-06T12:55:29.090Z,4.47
2022-09-06T12:57:57.820Z,4.00
2022-09-06T13:00:32.677Z,4.93
2022-09-06T13:03:04.406Z,3.67
2022-09-06T13:05:31.866Z,4.35
2022-09-06T13:08:03.875Z,3.90
2022-09-06T13:10:44.575Z,3.80
2022-09-06T13:13:13.513Z,2.92
2022-09-06T13:15:46.880Z,2.93
2022-09-06T13:18:35.525Z,4.72
2022-09-06T13:21:05.350Z,4.80
2022-09-06T13:23:48.720Z,3.72
2022-09-06T13:32:46.574Z,3.10
2022-09-06T13:38:35.002Z,3.22
2022-09-06T13:44:30.423Z,2.60
2022-09-06T13:46:58.072Z,3.60
2022-09-06T13:49:25.403Z,3.15
2022-09-06T13:51:53.885Z,2.47
2022-09-06T13:54:22.721Z,2.53
2022-09-06T13:56:50.408Z,1.80
2022-09-06T13:59:18.336Z,2.20
2022-09-06T14:01:48.985Z,1.80
2022-09-06T14:04:21.496Z,1.83
2022-09-06T14:06:49.072Z,2.10
2022-09-06T14:09:15.665Z,2.20
2022-09-06T14:11:47.492Z,1.83
2022-09-06T14:14:15.307Z,1.95
2022-09-06T14:16:41.910Z,1.77
2022-09-06T14:19:08.527Z,2.35
2022-09-06T14:21:35.399Z,2.37
2022-09-06T14:24:04.541Z,1.90
2022-09-06T14:26:31.894Z,1.75
2022-09-06T14:31:42.632Z,1.70
2022-09-06T14:34:16.842Z,1.70
2022-09-06T14:36:43.629Z,2.00
2022-09-06T14:39:10.106Z,1.90
2022-09-06T14:41:36.915Z,1.85
2022-09-06T14:44:03.946Z,2.33
2022-09-06T14:46:30.624Z,2.20
2022-09-06T14:48:59.973Z,2.53
2022-09-06T14:51:27.280Z,2.75
2022-09-06T14:54:11.457Z,2.85
2022-09-06T14:56:40.414Z,3.00
2022-09-06T14:59:08.542Z,3.00
2022-09-06T15:01:38.535Z,3.50
2022-09-06T15:04:07.453Z,3.47
2022-09-06T15:06:36.793Z,4.00
2022-09-06T15:09:04.397Z,2.63
2022-09-06T15:11:34.977Z,3.23
2022-09-06T15:14:05.854Z,3.05
2022-09-06T15:16:33.044Z,3.13
2022-09-06T15:18:59.984Z,3.40
2022-09-06T15:21:28.761Z,3.50
2022-09-06T15:23:55.553Z,2.70
2022-09-06T15:26:22.356Z,3.85
2022-09-06T15:28:49.003Z,3.90
2022-09-06T15:31:16.225Z,3.38
2022-09-06T15:33:43.023Z,3.42
2022-09-06T15:36:10.486Z,4.27
2022-09-06T15:38:47.964Z,3.10
2022-09-06T15:41:18.230Z,3.47
2022-09-06T15:43:47.478Z,3.88
2022-09-06T15:46:16.007Z,3.30
2022-09-06T15:48:45.139Z,3.60
2022-09-06T15:51:13.794Z,3.40
2022-09-06T15:53:40.940Z,3.42
2022-09-06T15:56:09.294Z,3.38
2022-09-06T15:58:37.287Z,3.45
2022-09-06T16:01:06.964Z,3.37
2022-09-06T16:03:38.013Z,7.55
2022-09-06T16:09:00.026Z,3.95
2022-09-06T16:11:28.519Z,2.88
2022-09-06T16:13:55.398Z,2.80
2022-09-06T16:16:23.658Z,3.00
2022-09-06T16:18:52.460Z,2.72
2022-09-06T16:21:24.500Z,3.08
2022-09-06T16:23:54.928Z,2.33
2022-09-06T16:26:24.308Z,2.43
2022-09-06T16:28:52.423Z,2.90
2022-09-06T16:31:20.949Z,2.85
2022-09-06T16:33:49.023Z,2.60
2022-09-06T16:36:17.143Z,2.45
2022-09-06T16:38:44.090Z,2.40
2022-09-06T16:41:14.563Z,2.15
2022-09-06T16:43:47.168Z,2.70
2022-09-06T16:46:13.755Z,2.38
2022-09-06T16:48:41.490Z,2.50
2022-09-06T16:51:11.063Z,2.13
2022-09-06T16:53:40.521Z,2.10
2022-09-06T16:56:07.614Z,2.10
2022-09-06T16:58:34.703Z,2.58
2022-09-06T17:01:03.406Z,2.30
2022-09-06T17:03:30.269Z,2.20
2022-09-06T17:05:57.342Z,1.90
2022-09-06T17:08:24.034Z,2.03
2022-09-06T17:10:50.803Z,2.40
2022-09-06T17:13:17.415Z,2.42
2022-09-06T17:16:11.212Z,2.83
2022-09-06T17:18:38.420Z,2.65
2022-09-06T17:21:33.289Z,16.80
2022-09-06T17:27:14.010Z,5.50
2022-09-06T17:29:40.622Z,3.53
2022-09-06T17:32:10.391Z,2.70
2022-09-06T17:34:39.143Z,2.28
2022-09-06T17:37:06.363Z,1.70
2022-09-06T17:39:33.282Z,2.83
2022-09-06T17:42:02.159Z,2.70
2022-09-06T17:44:29.750Z,2.17
2022-09-06T17:47:12.081Z,2.30
2022-09-06T17:49:39.710Z,2.55
2022-09-06T17:52:06.205Z,1.92
2022-09-06T17:54:32.787Z,1.83
2022-09-06T17:56:59.297Z,1.85
2022-09-06T17:59:25.790Z,1.63
2022-09-06T18:01:53.499Z,2.03
2022-09-06T18:04:20.069Z,2.17
2022-09-06T18:06:48.632Z,1.40
2022-09-06T18:09:17.441Z,2.00
2022-09-06T18:11:47.102Z,1.85
2022-09-06T18:14:17.392Z,1.85
2022-09-06T18:16:47.030Z,1.58
2022-09-06T18:19:14.014Z,1.70
2022-09-06T18:21:41.072Z,1.75
2022-09-06T18:24:09.283Z,1.75
2022-09-06T18:26:37.260Z,1.98
2022-09-06T18:29:07.034Z,2.38
2022-09-06T18:31:33.969Z,2.20
2022-09-06T18:34:00.673Z,2.20
2022-09-06T18:36:31.889Z,2.92
2022-09-06T18:39:53.737Z,2.35
2022-09-06T18:42:00.254Z,2.63
2022-09-06T18:44:33.042Z,2.27
2022-09-06T18:47:02.366Z,2.20
2022-09-06T19:13:37.155Z,1.83
2022-09-06T19:19:18.852Z,1.80
2022-09-06T19:21:45.716Z,2.15
2022-09-06T19:24:14.975Z,2.00
2022-09-06T19:26:43.458Z,1.80
2022-09-06T19:29:17.135Z,2.60
2022-09-06T19:31:44.729Z,2.93
2022-09-06T19:34:13.630Z,2.70
2022-09-06T19:36:40.275Z,2.55
2022-09-06T19:39:09.657Z,2.70
2022-09-06T19:41:38.702Z,3.30
2022-09-06T19:44:10.011Z,3.20
2022-09-06T19:46:37.666Z,3.45
2022-09-06T19:49:27.306Z,2.72
2022-09-06T19:51:54.084Z,3.70
2022-09-06T19:54:20.753Z,3.00
2022-09-06T19:56:49.789Z,3.57
2022-09-06T19:59:18.968Z,3.55
2022-09-06T20:01:48.391Z,3.25
2022-09-06T20:04:19.898Z,3.80
2022-09-06T20:09:54.792Z,3.70
2022-09-06T20:12:23.946Z,4.72
2022-09-06T20:17:34.707Z,3.45
2022-09-06T20:20:16.911Z,3.80
2022-09-06T20:22:47.439Z,3.07
2022-09-06T20:25:15.516Z,3.15
2022-09-06T20:27:44.516Z,3.90
2022-09-06T20:30:11.901Z,3.50
2022-09-06T20:35:24.263Z,3.80
2022-09-06T20:37:54.761Z,3.95
2022-09-06T20:43:06.384Z,4.70
2022-09-06T20:45:36.277Z,4.70
2022-09-06T20:48:03.000Z,5.03
2022-09-06T20:50:29.686Z,4.68
2022-09-06T20:52:56.247Z,4.28
2022-09-06T20:55:22.812Z,5.45
2022-09-06T20:57:49.389Z,4.32
2022-09-06T21:00:16.171Z,4.30
2022-09-06T21:02:42.725Z,4.55
2022-09-06T21:05:09.403Z,5.60
2022-09-06T21:07:36.001Z,4.68
2022-09-06T21:10:03.599Z,5.18
2022-09-06T21:12:30.140Z,5.20
2022-09-06T21:14:56.664Z,5.68
2022-09-06T21:17:23.220Z,5.45
2022-09-06T21:19:49.784Z,5.38
2022-09-06T21:22:18.998Z,4.80
2022-09-06T21:24:45.520Z,5.20
2022-09-06T21:27:12.214Z,5.60
2022-09-06T21:29:38.767Z,5.63
2022-09-06T21:32:05.373Z,5.43
2022-09-06T21:34:31.881Z,5.50
2022-09-06T21:36:58.807Z,5.70
2022-09-06T21:39:25.390Z,5.38
2022-09-06T21:41:51.982Z,5.35
2022-09-06T21:44:18.512Z,4.88
2022-09-06T21:46:46.391Z,4.85
2022-09-06T21:49:13.829Z,5.00
2022-09-06T21:51:41.702Z,4.35
2022-09-06T21:54:08.702Z,3.78
2022-09-06T21:56:37.631Z,3.75
2022-09-06T21:59:05.692Z,3.10
2022-09-06T22:01:34.431Z,3.00
2022-09-06T22:04:02.283Z,2.88
2022-09-06T22:06:31.123Z,3.05
2022-09-06T22:09:00.734Z,2.70
2022-09-06T22:11:30.626Z,2.58
2022-09-06T22:14:02.389Z,2.57
2022-09-06T22:16:30.169Z,2.88
2022-09-06T22:18:57.013Z,2.88
2022-09-06T22:21:24.507Z,2.78
2022-09-06T22:23:54.463Z,2.60
2022-09-06T22:26:21.336Z,2.63
2022-09-06T22:28:48.400Z,4.20
2022-09-06T22:31:14.952Z,6.90
2022-09-06T22:33:42.601Z,7.22
2022-09-06T22:36:10.300Z,7.60
2022-09-06T22:38:38.143Z,6.83
2022-09-06T22:41:04.863Z,5.90
2022-09-06T22:43:33.957Z,5.35
2022-09-06T22:46:13.143Z,4.45
2022-09-06T22:51:23.245Z,2.30
2022-09-06T22:53:52.988Z,2.20
2022-09-06T22:56:21.555Z,2.13
2022-09-06T22:58:48.169Z,1.40
2022-09-06T23:01:16.801Z,1.42
2022-09-06T23:04:00.464Z,1.20
2022-09-06T23:06:29.899Z,1.00
2022-09-06T23:08:56.544Z,1.33
2022-09-06T23:11:22.990Z,1.30
2022-09-06T23:13:49.492Z,1.33
2022-09-06T23:16:20.058Z,1.23
2022-09-06T23:18:47.820Z,1.30
2022-09-06T23:21:18.475Z,1.23
2022-09-06T23:23:46.075Z,1.25
2022-09-06T23:26:15.255Z,1.45
2022-09-06T23:28:42.029Z,1.47
2022-09-06T23:31:12.532Z,1.80
2022-09-06T23:33:39.355Z,1.45
2022-09-06T23:36:09.511Z,1.30
2022-09-06T23:38:39.210Z,1.60
2022-09-06T23:41:06.906Z,1.47
2022-09-06T23:43:33.336Z,1.17
2022-09-06T23:45:59.915Z,1.02
2022-09-06T23:48:26.748Z,1.10
2022-09-06T23:50:53.538Z,0.98
2022-09-06T23:53:20.228Z,0.80
2022-09-06T23:55:46.742Z,1.00
2022-09-06T23:58:13.585Z,0.95
